sensor_id;sensor_type;location;lat;lon;timestamp;temperature;humidity
27803;DHT22;15182;48.174;11.562;2022-11-20T00:01:49;10.40;99.90
27803;DHT22;15182;48.174;11.562;2022-11-20T00:04:21;10.40;99.90
27803;DHT22;15182;48.174;11.562;2022-11-20T00:06:53;10.40;99.90
27803;DHT22;15182;48.174;11.562;2022-11-20T00:09:24;10.40;99.90
27803;DHT22;15182;48.174;11.562;2022-11-20T00:11:55;10.40;99.90
27803;DHT22;15182;48.174;11.562;2022-11-20T00:14:27;10.40;99.90
27803;DHT22;15182;48.174;11.562;2022-11-20T00:16:58;10.40;99.90
27803;DHT22;15182;48.174;11.562;2022-11-20T00:19:29;10.40;99.90
27803;DHT22;15182;48.174;11.562;2022-11-20T00:22:02;10.50;99.90
27803;DHT22;15182;48.174;11.562;2022-11-20T00:24:34;10.50;99.90
27803;DHT22;15182;48.174;11.562;2022-11-20T00:27:05;10.50;99.90
27803;DHT22;15182;48.174;11.562;2022-11-20T00:29:36;10.50;99.90
27803;DHT22;15182;48.174;11.562;2022-11-20T00:32:07;10.60;99.90
27803;DHT22;15182;48.174;11.562;2022-11-20T00:34:39;10.50;99.90
27803;DHT22;15182;48.174;11.562;2022-11-20T00:37:11;10.50;99.90
27803;DHT22;15182;48.174;11.562;2022-11-20T00:39:42;10.50;99.90
27803;DHT22;15182;48.174;11.562;2022-11-20T00:42:14;10.50;99.90
27803;DHT22;15182;48.174;11.562;2022-11-20T00:44:45;10.50;99.90
27803;DHT22;15182;48.174;11.562;2022-11-20T00:47:16;10.50;99.90
27803;DHT22;15182;48.174;11.562;2022-11-20T00:49:48;10.50;99.90
27803;DHT22;15182;48.174;11.562;2022-11-20T00:52:20;10.50;99.90
27803;DHT22;15182;48.174;11.562;2022-11-20T00:54:51;10.50;99.90
27803;DHT22;15182;48.174;11.562;2022-11-20T00:57:23;10.50;99.90
27803;DHT22;15182;48.174;11.562;2022-11-20T00:59:54;10.50;99.90
27803;DHT22;15182;48.174;11.562;2022-11-20T01:02:25;10.50;99.90
27803;DHT22;15182;48.174;11.562;2022-11-20T01:04:57;10.50;99.90
27803;DHT22;15182;48.174;11.562;2022-11-20T01:07:29;10.50;99.90
27803;DHT22;15182;48.174;11.562;2022-11-20T01:10:00;10.50;99.90
27803;DHT22;15182;48.174;11.562;2022-11-20T01:12:32;10.50;99.90
27803;DHT22;15182;48.174;11.562;2022-11-20T01:15:03;10.50;99.90
27803;DHT22;15182;48.174;11.562;2022-11-20T01:17:36;10.50;99.90
27803;DHT22;15182;48.174;11.562;2022-11-20T01:20:06;10.40;99.90
27803;DHT22;15182;48.174;11.562;2022-11-20T01:22:40;10.40;99.90
27803;DHT22;15182;48.174;11.562;2022-11-20T01:25:12;10.40;99.90
27803;DHT22;15182;48.174;11.562;2022-11-20T01:27:43;10.40;99.90
27803;DHT22;15182;48.174;11.562;2022-11-20T01:30:15;10.40;99.90
27803;DHT22;15182;48.174;11.562;2022-11-20T01:32:46;10.40;99.90
27803;DHT22;15182;48.174;11.562;2022-11-20T01:35:18;10.40;99.90
27803;DHT22;15182;48.174;11.562;2022-11-20T01:37:51;10.50;99.90
27803;DHT22;15182;48.174;11.562;2022-11-20T01:40:22;10.50;99.90
27803;DHT22;15182;48.174;11.562;2022-11-20T01:43:01;10.50;99.90
27803;DHT22;15182;48.174;11.562;2022-11-20T01:46:01;10.50;99.90
27803;DHT22;15182;48.174;11.562;2022-11-20T01:48:41;10.50;99.90
27803;DHT22;15182;48.174;11.562;2022-11-20T01:51:16;10.50;99.90
27803;DHT22;15182;48.174;11.562;2022-11-20T01:53:51;10.50;99.90
27803;DHT22;15182;48.174;11.562;2022-11-20T01:56:24;10.50;99.90
27803;DHT22;15182;48.174;11.562;2022-11-20T01:59:01;10.50;99.90
27803;DHT22;15182;48.174;11.562;2022-11-20T02:01:36;10.50;99.90
27803;DHT22;15182;48.174;11.562;2022-11-20T02:04:09;10.50;99.90
27803;DHT22;15182;48.174;11.562;2022-11-20T02:06:43;10.50;99.90
27803;DHT22;15182;48.174;11.562;2022-11-20T02:09:18;10.50;99.90
27803;DHT22;15182;48.174;11.562;2022-11-20T02:11:50;10.50;99.90
27803;DHT22;15182;48.174;11.562;2022-11-20T02:14:23;10.50;99.90
27803;DHT22;15182;48.174;11.562;2022-11-20T02:16:57;10.50;99.90
27803;DHT22;15182;48.174;11.562;2022-11-20T02:19:30;10.50;99.90
27803;DHT22;15182;48.174;11.562;2022-11-20T02:22:08;10.50;99.90
27803;DHT22;15182;48.174;11.562;2022-11-20T02:24:44;10.50;99.90
27803;DHT22;15182;48.174;11.562;2022-11-20T02:27:18;10.50;99.90
27803;DHT22;15182;48.174;11.562;2022-11-20T02:29:54;10.50;99.90
27803;DHT22;15182;48.174;11.562;2022-11-20T02:32:30;10.50;99.90
27803;DHT22;15182;48.174;11.562;2022-11-20T02:35:08;10.50;99.90
27803;DHT22;15182;48.174;11.562;2022-11-20T02:38:01;10.50;99.90
27803;DHT22;15182;48.174;11.562;2022-11-20T02:40:35;10.50;99.90
27803;DHT22;15182;48.174;11.562;2022-11-20T02:43:06;10.40;99.90
27803;DHT22;15182;48.174;11.562;2022-11-20T02:45:39;10.50;99.90
27803;DHT22;15182;48.174;11.562;2022-11-20T02:48:12;10.50;99.90
27803;DHT22;15182;48.174;11.562;2022-11-20T02:50:44;10.50;99.90
27803;DHT22;15182;48.174;11.562;2022-11-20T02:53:15;10.50;99.90
27803;DHT22;15182;48.174;11.562;2022-11-20T02:55:48;10.50;99.90
27803;DHT22;15182;48.174;11.562;2022-11-20T02:58:20;10.40;99.90
27803;DHT22;15182;48.174;11.562;2022-11-20T03:00:51;10.40;99.90
27803;DHT22;15182;48.174;11.562;2022-11-20T03:03:23;10.40;99.90
27803;DHT22;15182;48.174;11.562;2022-11-20T03:05:54;10.50;99.90
27803;DHT22;15182;48.174;11.562;2022-11-20T03:08:27;10.50;99.90
27803;DHT22;15182;48.174;11.562;2022-11-20T03:11:02;10.40;99.90
27803;DHT22;15182;48.174;11.562;2022-11-20T03:13:33;10.40;99.90
27803;DHT22;15182;48.174;11.562;2022-11-20T03:16:08;10.40;99.90
27803;DHT22;15182;48.174;11.562;2022-11-20T03:18:41;10.40;99.90
27803;DHT22;15182;48.174;11.562;2022-11-20T03:21:14;10.40;99.90
27803;DHT22;15182;48.174;11.562;2022-11-20T03:23:46;10.40;99.90
27803;DHT22;15182;48.174;11.562;2022-11-20T03:26:21;10.40;99.90
27803;DHT22;15182;48.174;11.562;2022-11-20T03:28:55;10.40;99.90
27803;DHT22;15182;48.174;11.562;2022-11-20T03:31:29;10.40;99.90
27803;DHT22;15182;48.174;11.562;2022-11-20T03:34:02;10.40;99.90
27803;DHT22;15182;48.174;11.562;2022-11-20T03:36:37;10.40;99.90
27803;DHT22;15182;48.174;11.562;2022-11-20T03:39:08;10.40;99.90
27803;DHT22;15182;48.174;11.562;2022-11-20T03:41:42;10.40;99.90
27803;DHT22;15182;48.174;11.562;2022-11-20T03:44:13;10.40;99.90
27803;DHT22;15182;48.174;11.562;2022-11-20T03:46:44;10.40;99.90
27803;DHT22;15182;48.174;11.562;2022-11-20T03:49:16;10.40;99.90
27803;DHT22;15182;48.174;11.562;2022-11-20T03:51:47;10.40;99.90
27803;DHT22;15182;48.174;11.562;2022-11-20T03:54:18;10.40;99.90
27803;DHT22;15182;48.174;11.562;2022-11-20T03:56:51;10.40;99.80
27803;DHT22;15182;48.174;11.562;2022-11-20T03:59:22;10.40;99.80
27803;DHT22;15182;48.174;11.562;2022-11-20T04:01:53;10.40;99.80
27803;DHT22;15182;48.174;11.562;2022-11-20T04:04:25;10.40;99.70
27803;DHT22;15182;48.174;11.562;2022-11-20T04:06:56;10.40;99.70
27803;DHT22;15182;48.174;11.562;2022-11-20T04:09:28;10.40;99.70
27803;DHT22;15182;48.174;11.562;2022-11-20T04:12:01;10.40;99.70
27803;DHT22;15182;48.174;11.562;2022-11-20T04:14:32;10.40;99.70
27803;DHT22;15182;48.174;11.562;2022-11-20T04:17:04;10.50;99.60
27803;DHT22;15182;48.174;11.562;2022-11-20T04:19:36;10.40;99.50
27803;DHT22;15182;48.174;11.562;2022-11-20T04:22:07;10.40;99.50
27803;DHT22;15182;48.174;11.562;2022-11-20T04:24:39;10.40;99.40
27803;DHT22;15182;48.174;11.562;2022-11-20T04:27:12;10.40;99.40
27803;DHT22;15182;48.174;11.562;2022-11-20T04:29:43;10.40;99.40
27803;DHT22;15182;48.174;11.562;2022-11-20T04:32:14;10.40;99.40
27803;DHT22;15182;48.174;11.562;2022-11-20T04:34:46;10.40;99.40
27803;DHT22;15182;48.174;11.562;2022-11-20T04:37:17;10.40;99.30
27803;DHT22;15182;48.174;11.562;2022-11-20T04:39:49;10.40;99.30
27803;DHT22;15182;48.174;11.562;2022-11-20T04:42:21;10.40;99.40
27803;DHT22;15182;48.174;11.562;2022-11-20T04:44:59;10.40;99.40
27803;DHT22;15182;48.174;11.562;2022-11-20T04:47:30;10.40;99.40
27803;DHT22;15182;48.174;11.562;2022-11-20T04:50:02;10.40;99.40
27803;DHT22;15182;48.174;11.562;2022-11-20T04:52:34;10.40;99.40
27803;DHT22;15182;48.174;11.562;2022-11-20T04:55:06;10.40;99.30
27803;DHT22;15182;48.174;11.562;2022-11-20T04:57:39;10.40;99.30
27803;DHT22;15182;48.174;11.562;2022-11-20T05:00:10;10.40;99.20
27803;DHT22;15182;48.174;11.562;2022-11-20T05:02:43;10.40;99.30
27803;DHT22;15182;48.174;11.562;2022-11-20T05:05:14;10.40;99.30
27803;DHT22;15182;48.174;11.562;2022-11-20T05:07:46;10.40;99.30
27803;DHT22;15182;48.174;11.562;2022-11-20T05:10:17;10.40;99.30
27803;DHT22;15182;48.174;11.562;2022-11-20T05:12:50;10.40;99.30
27803;DHT22;15182;48.174;11.562;2022-11-20T05:15:21;10.40;99.20
27803;DHT22;15182;48.174;11.562;2022-11-20T05:17:53;10.40;99.30
27803;DHT22;15182;48.174;11.562;2022-11-20T05:20:25;10.40;99.30
27803;DHT22;15182;48.174;11.562;2022-11-20T05:22:58;10.40;99.30
27803;DHT22;15182;48.174;11.562;2022-11-20T05:25:29;10.40;99.30
27803;DHT22;15182;48.174;11.562;2022-11-20T05:28:06;10.40;99.20
27803;DHT22;15182;48.174;11.562;2022-11-20T05:30:37;10.40;99.30
27803;DHT22;15182;48.174;11.562;2022-11-20T05:33:09;10.40;99.30
27803;DHT22;15182;48.174;11.562;2022-11-20T05:35:41;10.40;99.20
27803;DHT22;15182;48.174;11.562;2022-11-20T05:38:12;10.40;99.30
27803;DHT22;15182;48.174;11.562;2022-11-20T05:40:43;10.40;99.30
27803;DHT22;15182;48.174;11.562;2022-11-20T05:43:16;10.40;99.30
27803;DHT22;15182;48.174;11.562;2022-11-20T05:45:52;10.40;99.20
27803;DHT22;15182;48.174;11.562;2022-11-20T05:48:26;10.40;99.50
27803;DHT22;15182;48.174;11.562;2022-11-20T05:50:57;10.30;99.20
27803;DHT22;15182;48.174;11.562;2022-11-20T05:53:28;10.30;99.10
27803;DHT22;15182;48.174;11.562;2022-11-20T05:56:02;10.30;99.50
27803;DHT22;15182;48.174;11.562;2022-11-20T05:58:36;10.30;99.20
27803;DHT22;15182;48.174;11.562;2022-11-20T06:01:10;10.30;99.20
27803;DHT22;15182;48.174;11.562;2022-11-20T06:03:44;10.30;99.20
27803;DHT22;15182;48.174;11.562;2022-11-20T06:06:16;10.30;99.20
27803;DHT22;15182;48.174;11.562;2022-11-20T06:08:49;10.30;99.20
27803;DHT22;15182;48.174;11.562;2022-11-20T06:11:20;10.30;99.20
27803;DHT22;15182;48.174;11.562;2022-11-20T06:13:53;10.30;99.20
27803;DHT22;15182;48.174;11.562;2022-11-20T06:16:24;10.30;99.10
27803;DHT22;15182;48.174;11.562;2022-11-20T06:18:55;10.30;99.10
27803;DHT22;15182;48.174;11.562;2022-11-20T06:21:27;10.30;99.10
27803;DHT22;15182;48.174;11.562;2022-11-20T06:23:58;10.20;99.00
27803;DHT22;15182;48.174;11.562;2022-11-20T06:26:30;10.20;99.00
27803;DHT22;15182;48.174;11.562;2022-11-20T06:29:03;10.20;98.90
27803;DHT22;15182;48.174;11.562;2022-11-20T06:31:35;10.20;98.80
27803;DHT22;15182;48.174;11.562;2022-11-20T06:34:07;10.20;98.80
27803;DHT22;15182;48.174;11.562;2022-11-20T06:36:36;10.20;98.80
27803;DHT22;15182;48.174;11.562;2022-11-20T06:39:08;10.10;98.70
27803;DHT22;15182;48.174;11.562;2022-11-20T06:41:40;10.10;98.70
27803;DHT22;15182;48.174;11.562;2022-11-20T06:44:12;10.10;98.60
27803;DHT22;15182;48.174;11.562;2022-11-20T06:46:43;10.00;98.50
27803;DHT22;15182;48.174;11.562;2022-11-20T06:49:15;10.10;98.60
27803;DHT22;15182;48.174;11.562;2022-11-20T06:51:46;10.00;98.60
27803;DHT22;15182;48.174;11.562;2022-11-20T06:54:17;10.10;98.60
27803;DHT22;15182;48.174;11.562;2022-11-20T06:56:48;10.00;98.60
27803;DHT22;15182;48.174;11.562;2022-11-20T06:59:21;10.00;98.60
27803;DHT22;15182;48.174;11.562;2022-11-20T07:01:52;10.00;98.50
27803;DHT22;15182;48.174;11.562;2022-11-20T07:04:24;10.00;98.60
27803;DHT22;15182;48.174;11.562;2022-11-20T07:06:55;10.10;98.60
27803;DHT22;15182;48.174;11.562;2022-11-20T07:09:26;10.10;98.50
27803;DHT22;15182;48.174;11.562;2022-11-20T07:11:57;10.10;98.40
27803;DHT22;15182;48.174;11.562;2022-11-20T07:14:30;10.10;98.30
27803;DHT22;15182;48.174;11.562;2022-11-20T07:17:01;10.10;98.30
27803;DHT22;15182;48.174;11.562;2022-11-20T07:19:32;10.10;98.30
27803;DHT22;15182;48.174;11.562;2022-11-20T07:22:04;10.10;98.30
27803;DHT22;15182;48.174;11.562;2022-11-20T07:24:35;10.10;98.30
27803;DHT22;15182;48.174;11.562;2022-11-20T07:27:06;10.10;98.20
27803;DHT22;15182;48.174;11.562;2022-11-20T07:29:39;10.20;98.20
27803;DHT22;15182;48.174;11.562;2022-11-20T07:32:10;10.20;98.20
27803;DHT22;15182;48.174;11.562;2022-11-20T07:34:41;10.20;98.20
27803;DHT22;15182;48.174;11.562;2022-11-20T07:37:13;10.20;98.20
27803;DHT22;15182;48.174;11.562;2022-11-20T07:39:44;10.20;98.20
27803;DHT22;15182;48.174;11.562;2022-11-20T07:42:15;10.20;98.20
27803;DHT22;15182;48.174;11.562;2022-11-20T07:44:48;10.20;98.20
27803;DHT22;15182;48.174;11.562;2022-11-20T07:47:19;10.30;98.20
27803;DHT22;15182;48.174;11.562;2022-11-20T07:49:50;10.30;98.20
27803;DHT22;15182;48.174;11.562;2022-11-20T07:52:21;10.30;98.20
27803;DHT22;15182;48.174;11.562;2022-11-20T07:54:53;10.30;98.10
27803;DHT22;15182;48.174;11.562;2022-11-20T07:57:24;10.30;98.10
27803;DHT22;15182;48.174;11.562;2022-11-20T07:59:56;10.40;98.10
27803;DHT22;15182;48.174;11.562;2022-11-20T08:02:28;10.40;98.00
27803;DHT22;15182;48.174;11.562;2022-11-20T08:04:59;10.40;98.10
27803;DHT22;15182;48.174;11.562;2022-11-20T08:07:34;10.40;98.00
27803;DHT22;15182;48.174;11.562;2022-11-20T08:10:06;10.40;98.10
27803;DHT22;15182;48.174;11.562;2022-11-20T08:12:45;10.40;98.10
27803;DHT22;15182;48.174;11.562;2022-11-20T08:15:38;10.40;98.00
27803;DHT22;15182;48.174;11.562;2022-11-20T08:18:11;10.40;98.10
27803;DHT22;15182;48.174;11.562;2022-11-20T08:20:43;10.40;98.10
27803;DHT22;15182;48.174;11.562;2022-11-20T08:23:15;10.40;98.10
27803;DHT22;15182;48.174;11.562;2022-11-20T08:25:51;10.40;98.10
27803;DHT22;15182;48.174;11.562;2022-11-20T08:28:22;10.40;97.90
27803;DHT22;15182;48.174;11.562;2022-11-20T08:30:58;10.40;98.00
27803;DHT22;15182;48.174;11.562;2022-11-20T08:33:30;10.40;97.90
27803;DHT22;15182;48.174;11.562;2022-11-20T08:36:02;10.40;97.90
27803;DHT22;15182;48.174;11.562;2022-11-20T08:38:35;10.40;97.90
27803;DHT22;15182;48.174;11.562;2022-11-20T08:41:06;10.40;98.00
27803;DHT22;15182;48.174;11.562;2022-11-20T08:43:53;10.50;98.10
27803;DHT22;15182;48.174;11.562;2022-11-20T08:46:31;10.50;98.10
27803;DHT22;15182;48.174;11.562;2022-11-20T08:49:04;10.50;97.90
27803;DHT22;15182;48.174;11.562;2022-11-20T08:51:36;10.50;97.90
27803;DHT22;15182;48.174;11.562;2022-11-20T08:54:09;10.60;97.90
27803;DHT22;15182;48.174;11.562;2022-11-20T08:56:41;10.60;97.90
27803;DHT22;15182;48.174;11.562;2022-11-20T08:59:12;10.60;97.80
27803;DHT22;15182;48.174;11.562;2022-11-20T09:01:46;10.60;97.70
27803;DHT22;15182;48.174;11.562;2022-11-20T09:04:17;10.70;97.70
27803;DHT22;15182;48.174;11.562;2022-11-20T09:06:49;10.70;97.60
27803;DHT22;15182;48.174;11.562;2022-11-20T09:09:20;10.70;97.60
27803;DHT22;15182;48.174;11.562;2022-11-20T09:11:52;10.70;97.50
27803;DHT22;15182;48.174;11.562;2022-11-20T09:14:23;10.70;97.60
27803;DHT22;15182;48.174;11.562;2022-11-20T09:16:58;10.70;97.50
27803;DHT22;15182;48.174;11.562;2022-11-20T09:19:29;10.80;97.40
27803;DHT22;15182;48.174;11.562;2022-11-20T09:22:00;10.80;97.40
27803;DHT22;15182;48.174;11.562;2022-11-20T09:24:32;10.80;97.30
27803;DHT22;15182;48.174;11.562;2022-11-20T09:27:03;10.90;97.30
27803;DHT22;15182;48.174;11.562;2022-11-20T09:29:34;10.90;97.30
27803;DHT22;15182;48.174;11.562;2022-11-20T09:32:07;10.90;97.20
27803;DHT22;15182;48.174;11.562;2022-11-20T09:34:38;11.00;97.20
27803;DHT22;15182;48.174;11.562;2022-11-20T09:37:09;11.00;97.20
27803;DHT22;15182;48.174;11.562;2022-11-20T09:39:40;11.00;97.20
27803;DHT22;15182;48.174;11.562;2022-11-20T09:42:23;11.00;97.10
27803;DHT22;15182;48.174;11.562;2022-11-20T09:45:21;11.10;96.70
27803;DHT22;15182;48.174;11.562;2022-11-20T09:48:14;11.10;96.80
27803;DHT22;15182;48.174;11.562;2022-11-20T09:50:51;11.10;96.60
27803;DHT22;15182;48.174;11.562;2022-11-20T09:53:31;11.10;96.70
27803;DHT22;15182;48.174;11.562;2022-11-20T09:56:04;11.10;96.60
27803;DHT22;15182;48.174;11.562;2022-11-20T09:58:40;11.20;96.60
27803;DHT22;15182;48.174;11.562;2022-11-20T10:01:16;11.20;96.40
27803;DHT22;15182;48.174;11.562;2022-11-20T10:03:55;11.20;96.40
27803;DHT22;15182;48.174;11.562;2022-11-20T10:06:32;11.30;96.40
27803;DHT22;15182;48.174;11.562;2022-11-20T10:09:16;11.30;96.50
27803;DHT22;15182;48.174;11.562;2022-11-20T10:11:58;11.30;96.40
27803;DHT22;15182;48.174;11.562;2022-11-20T10:14:41;11.40;96.40
27803;DHT22;15182;48.174;11.562;2022-11-20T10:17:20;11.50;96.30
27803;DHT22;15182;48.174;11.562;2022-11-20T10:20:02;11.50;96.30
27803;DHT22;15182;48.174;11.562;2022-11-20T10:22:49;11.60;96.10
27803;DHT22;15182;48.174;11.562;2022-11-20T10:25:26;11.70;96.00
27803;DHT22;15182;48.174;11.562;2022-11-20T10:28:15;11.70;95.90
27803;DHT22;15182;48.174;11.562;2022-11-20T10:31:00;11.70;95.60
27803;DHT22;15182;48.174;11.562;2022-11-20T10:33:34;11.70;95.50
27803;DHT22;15182;48.174;11.562;2022-11-20T10:36:17;11.70;95.70
27803;DHT22;15182;48.174;11.562;2022-11-20T10:38:54;11.70;95.50
27803;DHT22;15182;48.174;11.562;2022-11-20T10:41:34;11.70;95.60
27803;DHT22;15182;48.174;11.562;2022-11-20T10:44:15;11.70;95.70
27803;DHT22;15182;48.174;11.562;2022-11-20T10:47:14;11.70;95.60
27803;DHT22;15182;48.174;11.562;2022-11-20T10:49:49;11.80;95.60
27803;DHT22;15182;48.174;11.562;2022-11-20T10:52:26;11.80;95.70
27803;DHT22;15182;48.174;11.562;2022-11-20T10:55:06;11.80;95.60
27803;DHT22;15182;48.174;11.562;2022-11-20T10:57:54;11.80;95.50
27803;DHT22;15182;48.174;11.562;2022-11-20T11:00:32;11.80;95.20
27803;DHT22;15182;48.174;11.562;2022-11-20T11:03:07;11.80;95.30
27803;DHT22;15182;48.174;11.562;2022-11-20T11:05:51;11.90;95.40
27803;DHT22;15182;48.174;11.562;2022-11-20T11:08:32;11.90;95.10
27803;DHT22;15182;48.174;11.562;2022-11-20T11:11:18;11.90;95.00
27803;DHT22;15182;48.174;11.562;2022-11-20T11:13:53;11.90;94.80
27803;DHT22;15182;48.174;11.562;2022-11-20T11:16:26;11.80;95.10
27803;DHT22;15182;48.174;11.562;2022-11-20T11:19:04;11.80;95.10
27803;DHT22;15182;48.174;11.562;2022-11-20T11:21:36;11.90;95.10
27803;DHT22;15182;48.174;11.562;2022-11-20T11:24:23;11.90;95.30
27803;DHT22;15182;48.174;11.562;2022-11-20T11:26:58;12.00;95.00
27803;DHT22;15182;48.174;11.562;2022-11-20T11:29:33;12.00;95.00
27803;DHT22;15182;48.174;11.562;2022-11-20T11:32:07;12.00;95.00
27803;DHT22;15182;48.174;11.562;2022-11-20T11:34:40;12.00;95.00
27803;DHT22;15182;48.174;11.562;2022-11-20T11:37:16;12.00;94.80
27803;DHT22;15182;48.174;11.562;2022-11-20T11:39:51;12.00;94.80
27803;DHT22;15182;48.174;11.562;2022-11-20T11:42:22;12.00;94.80
27803;DHT22;15182;48.174;11.562;2022-11-20T11:44:54;12.00;94.80
27803;DHT22;15182;48.174;11.562;2022-11-20T11:47:35;12.00;94.90
27803;DHT22;15182;48.174;11.562;2022-11-20T11:50:17;12.00;94.70
27803;DHT22;15182;48.174;11.562;2022-11-20T11:52:51;12.10;94.50
27803;DHT22;15182;48.174;11.562;2022-11-20T11:55:29;12.10;94.60
27803;DHT22;15182;48.174;11.562;2022-11-20T11:58:11;12.00;94.50
27803;DHT22;15182;48.174;11.562;2022-11-20T12:00:54;12.00;94.40
27803;DHT22;15182;48.174;11.562;2022-11-20T12:03:32;12.00;94.40
27803;DHT22;15182;48.174;11.562;2022-11-20T12:06:09;12.00;94.50
27803;DHT22;15182;48.174;11.562;2022-11-20T12:08:48;12.00;94.50
27803;DHT22;15182;48.174;11.562;2022-11-20T12:11:29;12.00;94.40
27803;DHT22;15182;48.174;11.562;2022-11-20T12:14:04;11.90;94.50
27803;DHT22;15182;48.174;11.562;2022-11-20T12:16:40;11.90;94.80
27803;DHT22;15182;48.174;11.562;2022-11-20T12:19:13;11.90;95.10
27803;DHT22;15182;48.174;11.562;2022-11-20T12:21:52;11.80;95.20
27803;DHT22;15182;48.174;11.562;2022-11-20T12:24:43;11.80;95.30
27803;DHT22;15182;48.174;11.562;2022-11-20T12:30:23;11.60;95.30
27803;DHT22;15182;48.174;11.562;2022-11-20T12:33:05;11.60;95.40
27803;DHT22;15182;48.174;11.562;2022-11-20T12:35:59;11.60;95.40
27803;DHT22;15182;48.174;11.562;2022-11-20T12:38:59;11.50;95.40
27803;DHT22;15182;48.174;11.562;2022-11-20T12:41:47;11.50;95.40
27803;DHT22;15182;48.174;11.562;2022-11-20T12:45:01;11.50;95.50
27803;DHT22;15182;48.174;11.562;2022-11-20T12:47:50;11.50;95.60
27803;DHT22;15182;48.174;11.562;2022-11-20T12:50:29;11.50;95.80
27803;DHT22;15182;48.174;11.562;2022-11-20T12:53:07;11.40;95.80
27803;DHT22;15182;48.174;11.562;2022-11-20T12:55:49;11.50;95.90
27803;DHT22;15182;48.174;11.562;2022-11-20T12:58:27;11.50;96.00
27803;DHT22;15182;48.174;11.562;2022-11-20T13:01:12;11.50;95.90
27803;DHT22;15182;48.174;11.562;2022-11-20T13:04:16;11.50;95.70
27803;DHT22;15182;48.174;11.562;2022-11-20T13:06:53;11.50;95.80
27803;DHT22;15182;48.174;11.562;2022-11-20T13:09:25;11.50;95.70
27803;DHT22;15182;48.174;11.562;2022-11-20T13:12:04;11.40;95.70
27803;DHT22;15182;48.174;11.562;2022-11-20T13:14:42;11.40;95.80
27803;DHT22;15182;48.174;11.562;2022-11-20T13:17:24;11.40;95.90
27803;DHT22;15182;48.174;11.562;2022-11-20T13:20:04;11.40;96.00
27803;DHT22;15182;48.174;11.562;2022-11-20T13:22:46;11.30;96.10
27803;DHT22;15182;48.174;11.562;2022-11-20T13:25:26;11.30;95.90
27803;DHT22;15182;48.174;11.562;2022-11-20T13:28:00;11.30;96.00
27803;DHT22;15182;48.174;11.562;2022-11-20T13:30:36;11.20;96.00
27803;DHT22;15182;48.174;11.562;2022-11-20T13:33:27;11.20;96.00
27803;DHT22;15182;48.174;11.562;2022-11-20T13:36:03;11.20;96.10
27803;DHT22;15182;48.174;11.562;2022-11-20T13:38:46;11.20;96.20
27803;DHT22;15182;48.174;11.562;2022-11-20T13:41:24;11.20;96.30
27803;DHT22;15182;48.174;11.562;2022-11-20T13:44:04;11.10;96.30
27803;DHT22;15182;48.174;11.562;2022-11-20T13:46:41;11.10;96.30
27803;DHT22;15182;48.174;11.562;2022-11-20T13:49:22;11.10;96.40
27803;DHT22;15182;48.174;11.562;2022-11-20T13:52:07;11.10;96.50
27803;DHT22;15182;48.174;11.562;2022-11-20T13:57:52;11.20;96.50
27803;DHT22;15182;48.174;11.562;2022-11-20T14:00:29;11.20;96.50
27803;DHT22;15182;48.174;11.562;2022-11-20T14:03:06;11.20;96.60
27803;DHT22;15182;48.174;11.562;2022-11-20T14:05:51;11.20;96.50
27803;DHT22;15182;48.174;11.562;2022-11-20T14:08:27;11.20;96.50
27803;DHT22;15182;48.174;11.562;2022-11-20T14:11:12;11.20;96.50
27803;DHT22;15182;48.174;11.562;2022-11-20T14:14:03;11.20;96.60
27803;DHT22;15182;48.174;11.562;2022-11-20T14:16:44;11.20;96.60
27803;DHT22;15182;48.174;11.562;2022-11-20T14:19:25;11.20;96.60
27803;DHT22;15182;48.174;11.562;2022-11-20T14:22:10;11.20;96.70
27803;DHT22;15182;48.174;11.562;2022-11-20T14:24:49;11.20;96.60
27803;DHT22;15182;48.174;11.562;2022-11-20T14:27:32;11.20;96.60
27803;DHT22;15182;48.174;11.562;2022-11-20T14:30:05;11.30;96.50
27803;DHT22;15182;48.174;11.562;2022-11-20T14:32:40;11.20;96.50
27803;DHT22;15182;48.174;11.562;2022-11-20T14:35:20;11.30;96.60
27803;DHT22;15182;48.174;11.562;2022-11-20T14:37:53;11.30;96.60
27803;DHT22;15182;48.174;11.562;2022-11-20T14:40:31;11.30;96.50
27803;DHT22;15182;48.174;11.562;2022-11-20T14:43:17;11.30;96.50
27803;DHT22;15182;48.174;11.562;2022-11-20T14:45:54;11.30;96.40
27803;DHT22;15182;48.174;11.562;2022-11-20T14:48:32;11.30;96.40
27803;DHT22;15182;48.174;11.562;2022-11-20T14:51:08;11.30;96.40
27803;DHT22;15182;48.174;11.562;2022-11-20T14:53:41;11.30;96.40
27803;DHT22;15182;48.174;11.562;2022-11-20T14:56:12;11.30;96.30
27803;DHT22;15182;48.174;11.562;2022-11-20T14:58:59;11.30;96.30
27803;DHT22;15182;48.174;11.562;2022-11-20T15:01:31;11.30;96.20
27803;DHT22;15182;48.174;11.562;2022-11-20T15:04:08;11.30;96.30
27803;DHT22;15182;48.174;11.562;2022-11-20T15:06:49;11.20;96.00
27803;DHT22;15182;48.174;11.562;2022-11-20T15:09:23;11.20;96.00
27803;DHT22;15182;48.174;11.562;2022-11-20T15:11:57;11.20;96.00
27803;DHT22;15182;48.174;11.562;2022-11-20T15:14:30;11.20;96.00
27803;DHT22;15182;48.174;11.562;2022-11-20T15:17:02;11.20;96.00
27803;DHT22;15182;48.174;11.562;2022-11-20T15:19:33;11.20;96.10
27803;DHT22;15182;48.174;11.562;2022-11-20T15:22:03;11.20;96.00
27803;DHT22;15182;48.174;11.562;2022-11-20T15:24:37;11.20;96.00
27803;DHT22;15182;48.174;11.562;2022-11-20T15:27:09;11.10;95.90
27803;DHT22;15182;48.174;11.562;2022-11-20T15:29:41;11.10;95.90
27803;DHT22;15182;48.174;11.562;2022-11-20T15:32:12;11.10;95.90
27803;DHT22;15182;48.174;11.562;2022-11-20T15:34:44;11.10;95.90
27803;DHT22;15182;48.174;11.562;2022-11-20T15:37:15;11.10;96.00
27803;DHT22;15182;48.174;11.562;2022-11-20T15:39:47;11.10;96.00
27803;DHT22;15182;48.174;11.562;2022-11-20T15:42:19;11.10;96.00
27803;DHT22;15182;48.174;11.562;2022-11-20T15:44:50;11.10;96.00
27803;DHT22;15182;48.174;11.562;2022-11-20T15:47:25;11.00;96.00
27803;DHT22;15182;48.174;11.562;2022-11-20T15:49:58;11.00;96.00
27803;DHT22;15182;48.174;11.562;2022-11-20T15:52:30;11.00;96.40
27803;DHT22;15182;48.174;11.562;2022-11-20T15:55:04;11.00;96.00
27803;DHT22;15182;48.174;11.562;2022-11-20T15:57:36;11.00;96.00
27803;DHT22;15182;48.174;11.562;2022-11-20T16:00:07;11.00;96.00
27803;DHT22;15182;48.174;11.562;2022-11-20T16:02:41;11.00;96.00
27803;DHT22;15182;48.174;11.562;2022-11-20T16:05:13;11.00;96.00
27803;DHT22;15182;48.174;11.562;2022-11-20T16:07:46;11.00;96.10
27803;DHT22;15182;48.174;11.562;2022-11-20T16:10:18;11.00;96.10